Wetterdaten: Woche 25.03.13 - 31.03.13 (KW13)
Datum Zeit Temp. Aussen +5cm Feuchte Auss Luftdruck Regen Sonnenschein Regendauer UV Solar Windben
25.03.2013 00:00 -0,8 C -1,9 C 57 % 1014,6 hPa 0,0 l/m 0,00 h 0,00 h 0,0 UV-I 0 W/m 9,0 km/h (2 Bft)
25.03.2013 01:00 -1,3 C -2,5 C 60 % 1014,4 hPa 0,0 l/m 0,00 h 0,00 h 0,0 UV-I 0 W/m 11,5 km/h (2 Bft)
25.03.2013 02:00 -1,7 C -2,7 C 62 % 1014,1 hPa 0,0 l/m 0,00 h 0,00 h 0,0 UV-I 0 W/m 11,8 km/h (2 Bft)
25.03.2013 03:00 -1,8 C -2,8 C 64 % 1014,0 hPa 0,0 l/m 0,00 h 0,00 h 0,0 UV-I 0 W/m 7,6 km/h (2 Bft)
25.03.2013 04:00 -2,1 C -3,2 C 65 % 1013,9 hPa 0,0 l/m 0,00 h 0,00 h 0,0 UV-I 0 W/m 12,6 km/h (3 Bft)
25.03.2013 05:00 -2,4 C -3,3 C 66 % 1014,2 hPa 0,0 l/m 0,00 h 0,00 h 0,0 UV-I 0 W/m 13,6 km/h (3 Bft)
25.03.2013 06:00 -2,8 C -3,8 C 67 % 1014,6 hPa 0,0 l/m 0,00 h 0,00 h 0,0 UV-I 11 W/m 15,8 km/h (3 Bft)
25.03.2013 07:00 -2,9 C -3,4 C 68 % 1014,8 hPa 0,0 l/m 0,00 h 0,00 h 0,0 UV-I 51 W/m 16,8 km/h (3 Bft)
25.03.2013 08:00 -2,4 C -2,5 C 66 % 1014,9 hPa 0,0 l/m 0,20 h 0,00 h 0,0 UV-I 144 W/m 18,3 km/h (3 Bft)
25.03.2013 09:00 -0,8 C -1,1 C 61 % 1014,8 hPa 0,0 l/m 1,00 h 0,00 h 0,5 UV-I 374 W/m 19,8 km/h (4 Bft)
25.03.2013 10:00 0,5 C 0,4 C 58 % 1014,6 hPa 0,0 l/m 1,00 h 0,00 h 0,9 UV-I 483 W/m 19,9 km/h (4 Bft)
25.03.2013 11:00 1,8 C 2,0 C 54 % 1014,0 hPa 0,0 l/m 0,97 h 0,00 h 1,4 UV-I 557 W/m 19,0 km/h (3 Bft)
25.03.2013 12:00 3,5 C 3,3 C 51 % 1013,2 hPa 0,0 l/m 1,00 h 0,00 h 1,7 UV-I 624 W/m 16,8 km/h (3 Bft)
25.03.2013 13:00 4,2 C 3,7 C 49 % 1012,7 hPa 0,0 l/m 1,00 h 0,00 h 1,5 UV-I 600 W/m 19,8 km/h (4 Bft)
25.03.2013 14:00 4,7 C 4,3 C 47 % 1012,3 hPa 0,0 l/m 1,00 h 0,00 h 1,0 UV-I 527 W/m 25,2 km/h (4 Bft)
25.03.2013 15:00 4,9 C 6,3 C 47 % 1011,9 hPa 0,0 l/m 1,00 h 0,00 h 0,6 UV-I 468 W/m 20,7 km/h (4 Bft)
25.03.2013 16:00 4,3 C 4,1 C 48 % 1012,0 hPa 0,0 l/m 1,00 h 0,00 h 0,0 UV-I 316 W/m 21,4 km/h (4 Bft)
25.03.2013 17:00 3,0 C 2,0 C 51 % 1012,0 hPa 0,0 l/m 0,53 h 0,00 h 0,0 UV-I 134 W/m 19,6 km/h (3 Bft)
25.03.2013 18:00 1,6 C 0,1 C 55 % 1012,3 hPa 0,0 l/m 0,00 h 0,00 h 0,0 UV-I 15 W/m 15,5 km/h (3 Bft)
25.03.2013 19:00 0,8 C -0,7 C 57 % 1012,7 hPa 0,0 l/m 0,00 h 0,00 h 0,0 UV-I 0 W/m 17,2 km/h (3 Bft)
25.03.2013 20:00 0,3 C -1,0 C 59 % 1013,0 hPa 0,0 l/m 0,00 h 0,00 h 0,0 UV-I 0 W/m 12,2 km/h (2 Bft)
25.03.2013 21:00 0,1 C -1,1 C 61 % 1013,1 hPa 0,0 l/m 0,00 h 0,00 h 0,0 UV-I 0 W/m 12,3 km/h (3 Bft)
25.03.2013 22:00 -0,4 C -1,9 C 62 % 1013,3 hPa 0,0 l/m 0,00 h 0,00 h 0,0 UV-I 0 W/m 8,8 km/h (2 Bft)
25.03.2013 23:00 -1,0 C -2,7 C 65 % 1013,1 hPa 0,0 l/m 0,00 h 0,00 h 0,0 UV-I 0 W/m 4,6 km/h (1 Bft)
26.03.2013 00:00 -1,6 C -3,1 C 68 % 1013,0 hPa 0,0 l/m 0,00 h 0,00 h 0,0 UV-I 0 W/m 2,9 km/h (1 Bft)
26.03.2013 01:00 -2,0 C -3,4 C 69 % 1013,0 hPa 0,0 l/m 0,00 h 0,00 h 0,0 UV-I 0 W/m 2,8 km/h (1 Bft)
26.03.2013 02:00 -2,3 C -3,8 C 69 % 1012,8 hPa 0,0 l/m 0,00 h 0,00 h 0,0 UV-I 0 W/m 3,9 km/h (1 Bft)
26.03.2013 03:00 -2,7 C -4,1 C 69 % 1012,6 hPa 0,0 l/m 0,00 h 0,00 h 0,0 UV-I 0 W/m 3,1 km/h (1 Bft)
26.03.2013 04:00 -2,9 C -4,3 C 68 % 1012,7 hPa 0,0 l/m 0,00 h 0,00 h 0,0 UV-I 0 W/m 6,3 km/h (2 Bft)
26.03.2013 05:00 -3,2 C -4,4 C 69 % 1012,8 hPa 0,0 l/m 0,00 h 0,00 h 0,0 UV-I 0 W/m 5,8 km/h (2 Bft)
26.03.2013 06:00 -3,5 C -4,7 C 71 % 1013,0 hPa 0,0 l/m 0,00 h 0,00 h 0,0 UV-I 13 W/m 4,7 km/h (1 Bft)
26.03.2013 07:00 -3,3 C -4,1 C 71 % 1013,2 hPa 0,0 l/m 0,00 h 0,00 h 0,0 UV-I 40 W/m 10,4 km/h (2 Bft)
26.03.2013 08:00 -2,2 C -2,7 C 68 % 1013,3 hPa 0,0 l/m 0,93 h 0,00 h 0,0 UV-I 212 W/m 15,7 km/h (3 Bft)
26.03.2013 09:00 -0,3 C -0,9 C 62 % 1013,4 hPa 0,0 l/m 1,00 h 0,00 h 0,5 UV-I 374 W/m 13,8 km/h (3 Bft)
26.03.2013 10:00 1,4 C 1,3 C 57 % 1013,1 hPa 0,0 l/m 1,00 h 0,00 h 0,9 UV-I 503 W/m 14,9 km/h (3 Bft)
26.03.2013 11:00 2,7 C 2,4 C 53 % 1012,8 hPa 0,0 l/m 1,00 h 0,00 h 1,4 UV-I 589 W/m 18,4 km/h (3 Bft)
26.03.2013 12:00 4,1 C 3,5 C 49 % 1012,3 hPa 0,0 l/m 1,00 h 0,00 h 1,6 UV-I 630 W/m 17,2 km/h (3 Bft)
26.03.2013 13:00 5,2 C 4,5 C 46 % 1011,9 hPa 0,0 l/m 1,00 h 0,00 h 1,5 UV-I 645 W/m 16,6 km/h (3 Bft)
26.03.2013 14:00 5,7 C 4,9 C 45 % 1011,4 hPa 0,0 l/m 1,00 h 0,00 h 1,1 UV-I 567 W/m 16,1 km/h (3 Bft)
26.03.2013 15:00 6,2 C 7,7 C 45 % 1011,1 hPa 0,0 l/m 1,00 h 0,00 h 0,6 UV-I 482 W/m 15,8 km/h (3 Bft)
26.03.2013 16:00 5,8 C 5,4 C 45 % 1011,0 hPa 0,0 l/m 1,00 h 0,00 h 0,0 UV-I 349 W/m 14,9 km/h (3 Bft)
26.03.2013 17:00 5,0 C 3,5 C 47 % 1010,8 hPa 0,0 l/m 0,97 h 0,00 h 0,0 UV-I 190 W/m 13,7 km/h (3 Bft)
26.03.2013 18:00 3,3 C 1,5 C 50 % 1011,2 hPa 0,0 l/m 0,30 h 0,00 h 0,0 UV-I 33 W/m 11,6 km/h (2 Bft)
26.03.2013 19:00 1,8 C -0,0 C 54 % 1011,8 hPa 0,0 l/m 0,00 h 0,00 h 0,0 UV-I 0 W/m 9,8 km/h (2 Bft)
26.03.2013 20:00 1,0 C -0,8 C 59 % 1012,2 hPa 0,0 l/m 0,00 h 0,00 h 0,0 UV-I 0 W/m 10,3 km/h (2 Bft)
26.03.2013 21:00 0,2 C -1,6 C 63 % 1012,5 hPa 0,0 l/m 0,00 h 0,00 h 0,0 UV-I 0 W/m 7,1 km/h (2 Bft)
26.03.2013 22:00 -0,3 C -2,1 C 67 % 1012,6 hPa 0,0 l/m 0,00 h 0,00 h 0,0 UV-I 0 W/m 6,0 km/h (2 Bft)
26.03.2013 23:00 -1,0 C -2,7 C 70 % 1012,6 hPa 0,0 l/m 0,00 h 0,00 h 0,0 UV-I 0 W/m 4,2 km/h (1 Bft)
27.03.2013 00:00 -1,7 C -3,5 C 74 % 1012,6 hPa 0,0 l/m 0,00 h 0,00 h 0,0 UV-I 0 W/m 0,4 km/h (0 Bft)
27.03.2013 01:00 -2,4 C -4,2 C 76 % 1012,5 hPa 0,0 l/m 0,00 h 0,00 h 0,0 UV-I 0 W/m 0,0 km/h (0 Bft)
27.03.2013 02:00 -2,9 C -4,6 C 78 % 1012,1 hPa 0,0 l/m 0,00 h 0,00 h 0,0 UV-I 0 W/m 0,2 km/h (0 Bft)
27.03.2013 03:00 -3,2 C -4,5 C 79 % 1011,8 hPa 0,0 l/m 0,00 h 0,00 h 0,0 UV-I 0 W/m 0,3 km/h (0 Bft)
27.03.2013 04:00 -3,3 C -4,8 C 79 % 1011,6 hPa 0,0 l/m 0,00 h 0,00 h 0,0 UV-I 0 W/m 0,6 km/h (0 Bft)
27.03.2013 05:00 -3,5 C -4,9 C 80 % 1011,4 hPa 0,0 l/m 0,00 h 0,00 h 0,0 UV-I 0 W/m 1,1 km/h (1 Bft)
27.03.2013 06:00 -3,8 C -5,1 C 81 % 1011,2 hPa 0,0 l/m 0,00 h 0,00 h 0,0 UV-I 10 W/m 1,8 km/h (1 Bft)
27.03.2013 07:00 -3,5 C -4,2 C 80 % 1011,2 hPa 0,0 l/m 0,00 h 0,00 h 0,0 UV-I 35 W/m 3,8 km/h (1 Bft)
27.03.2013 08:00 -1,8 C -2,2 C 73 % 1011,2 hPa 0,0 l/m 1,00 h 0,00 h 0,0 UV-I 244 W/m 9,6 km/h (2 Bft)
27.03.2013 09:00 0,6 C -0,3 C 63 % 1011,2 hPa 0,0 l/m 1,00 h 0,00 h 0,5 UV-I 390 W/m 11,2 km/h (2 Bft)
27.03.2013 10:00 2,7 C 1,9 C 56 % 1011,3 hPa 0,0 l/m 1,00 h 0,00 h 0,9 UV-I 512 W/m 8,3 km/h (2 Bft)
27.03.2013 11:00 4,0 C 3,3 C 52 % 1010,9 hPa 0,0 l/m 1,00 h 0,00 h 1,4 UV-I 595 W/m 10,0 km/h (2 Bft)
27.03.2013 12:00 5,3 C 4,4 C 49 % 1010,4 hPa 0,0 l/m 1,00 h 0,00 h 1,6 UV-I 632 W/m 13,3 km/h (3 Bft)
27.03.2013 13:00 6,2 C 5,4 C 47 % 1009,9 hPa 0,0 l/m 1,00 h 0,00 h 1,5 UV-I 630 W/m 14,7 km/h (3 Bft)
27.03.2013 14:00 6,4 C 5,6 C 47 % 1009,4 hPa 0,0 l/m 1,00 h 0,00 h 1,0 UV-I 564 W/m 17,8 km/h (3 Bft)
27.03.2013 15:00 6,9 C 8,4 C 46 % 1009,0 hPa 0,0 l/m 1,00 h 0,00 h 0,6 UV-I 463 W/m 13,9 km/h (3 Bft)
27.03.2013 16:00 7,1 C 6,4 C 45 % 1008,8 hPa 0,0 l/m 1,00 h 0,00 h 0,0 UV-I 333 W/m 12,4 km/h (3 Bft)
27.03.2013 17:00 6,2 C 4,7 C 46 % 1008,7 hPa 0,0 l/m 0,93 h 0,00 h 0,0 UV-I 170 W/m 12,7 km/h (3 Bft)
27.03.2013 18:00 4,6 C 2,7 C 51 % 1008,8 hPa 0,0 l/m 0,00 h 0,00 h 0,0 UV-I 22 W/m 9,3 km/h (2 Bft)
27.03.2013 19:00 3,4 C 1,4 C 56 % 1009,2 hPa 0,0 l/m 0,00 h 0,00 h 0,0 UV-I 0 W/m 7,1 km/h (2 Bft)
27.03.2013 20:00 2,6 C 0,7 C 59 % 1009,7 hPa 0,0 l/m 0,00 h 0,00 h 0,0 UV-I 0 W/m 3,7 km/h (1 Bft)
27.03.2013 21:00 1,8 C -0,0 C 63 % 1010,1 hPa 0,0 l/m 0,00 h 0,00 h 0,0 UV-I 0 W/m 4,8 km/h (1 Bft)
27.03.2013 22:00 1,1 C -1,0 C 67 % 1010,5 hPa 0,0 l/m 0,00 h 0,00 h 0,0 UV-I 0 W/m 3,1 km/h (1 Bft)
27.03.2013 23:00 0,2 C -2,3 C 69 % 1010,5 hPa 0,0 l/m 0,00 h 0,00 h 0,0 UV-I 0 W/m 0,2 km/h (0 Bft)
28.03.2013 00:00 -1,0 C -3,2 C 72 % 1010,2 hPa 0,0 l/m 0,00 h 0,00 h 0,0 UV-I 0 W/m 0,0 km/h (0 Bft)
28.03.2013 01:00 -1,6 C -3,2 C 74 % 1010,0 hPa 0,0 l/m 0,00 h 0,00 h 0,0 UV-I 0 W/m 0,2 km/h (0 Bft)
28.03.2013 02:00 -1,9 C -3,2 C 74 % 1009,6 hPa 0,0 l/m 0,00 h 0,00 h 0,0 UV-I 0 W/m 0,3 km/h (0 Bft)
28.03.2013 03:00 -2,2 C -3,6 C 75 % 1009,3 hPa 0,0 l/m 0,00 h 0,00 h 0,0 UV-I 0 W/m 0,9 km/h (0 Bft)
28.03.2013 04:00 -2,5 C -4,0 C 77 % 1009,2 hPa 0,0 l/m 0,00 h 0,00 h 0,0 UV-I 0 W/m 0,1 km/h (0 Bft)
28.03.2013 05:00 -2,6 C -3,5 C 80 % 1009,0 hPa 0,0 l/m 0,00 h 0,00 h 0,0 UV-I 0 W/m 0,0 km/h (0 Bft)
28.03.2013 06:00 -1,8 C -2,4 C 80 % 1009,1 hPa 0,0 l/m 0,00 h 0,00 h 0,0 UV-I 9 W/m 0,0 km/h (0 Bft)
28.03.2013 07:00 -1,0 C -1,3 C 79 % 1009,1 hPa 0,0 l/m 0,00 h 0,00 h 0,0 UV-I 43 W/m 1,3 km/h (1 Bft)
28.03.2013 08:00 0,3 C 0,3 C 76 % 1009,1 hPa 0,0 l/m 0,00 h 0,00 h 0,0 UV-I 129 W/m 4,5 km/h (1 Bft)
28.03.2013 09:00 2,1 C 2,3 C 70 % 1009,0 hPa 0,0 l/m 0,63 h 0,00 h 0,0 UV-I 263 W/m 8,0 km/h (2 Bft)
28.03.2013 10:00 3,5 C 4,3 C 64 % 1008,8 hPa 0,0 l/m 0,30 h 0,00 h 0,5 UV-I 288 W/m 9,1 km/h (2 Bft)
28.03.2013 11:00 4,7 C 5,7 C 63 % 1008,7 hPa 0,0 l/m 0,40 h 0,00 h 0,8 UV-I 416 W/m 9,7 km/h (2 Bft)
28.03.2013 12:00 5,3 C 5,8 C 61 % 1008,4 hPa 0,0 l/m 0,37 h 0,00 h 0,8 UV-I 335 W/m 11,0 km/h (2 Bft)
28.03.2013 13:00 5,1 C 5,6 C 62 % 1008,2 hPa 0,0 l/m 0,17 h 0,00 h 0,6 UV-I 258 W/m 9,2 km/h (2 Bft)
28.03.2013 14:00 5,5 C 5,7 C 59 % 1007,8 hPa 0,0 l/m 0,43 h 0,00 h 0,7 UV-I 342 W/m 7,9 km/h (2 Bft)
28.03.2013 15:00 5,6 C 5,9 C 57 % 1007,4 hPa 0,0 l/m 0,10 h 0,00 h 0,0 UV-I 229 W/m 5,2 km/h (1 Bft)
28.03.2013 16:00 5,0 C 4,8 C 62 % 1007,2 hPa 0,0 l/m 0,17 h 0,00 h 0,0 UV-I 177 W/m 12,9 km/h (3 Bft)
28.03.2013 17:00 4,3 C 3,7 C 66 % 1007,4 hPa 0,0 l/m 0,00 h 0,00 h 0,0 UV-I 82 W/m 8,7 km/h (2 Bft)
28.03.2013 18:00 3,2 C 2,0 C 70 % 1007,6 hPa 0,0 l/m 0,00 h 0,00 h 0,0 UV-I 22 W/m 5,9 km/h (2 Bft)
28.03.2013 19:00 2,1 C 0,7 C 74 % 1007,9 hPa 0,0 l/m 0,00 h 0,00 h 0,0 UV-I 0 W/m 0,5 km/h (0 Bft)
28.03.2013 20:00 1,6 C 0,5 C 74 % 1008,1 hPa 0,0 l/m 0,00 h 0,00 h 0,0 UV-I 0 W/m 3,5 km/h (1 Bft)
28.03.2013 21:00 1,1 C -0,3 C 74 % 1008,3 hPa 0,0 l/m 0,00 h 0,00 h 0,0 UV-I 0 W/m 1,2 km/h (1 Bft)
28.03.2013 22:00 0,5 C -0,8 C 77 % 1008,4 hPa 0,0 l/m 0,00 h 0,00 h 0,0 UV-I 0 W/m 1,2 km/h (1 Bft)
28.03.2013 23:00 0,2 C -0,8 C 80 % 1008,5 hPa 0,0 l/m 0,00 h 0,00 h 0,0 UV-I 0 W/m 4,4 km/h (1 Bft)
29.03.2013 00:00 -0,1 C -1,2 C 85 % 1008,4 hPa 0,0 l/m 0,00 h 0,00 h 0,0 UV-I 0 W/m 5,8 km/h (2 Bft)
29.03.2013 01:00 -0,5 C -1,9 C 91 % 1008,3 hPa 0,0 l/m 0,00 h 0,00 h 0,0 UV-I 0 W/m 4,0 km/h (1 Bft)
29.03.2013 02:00 -0,9 C -2,1 C 94 % 1008,2 hPa 0,0 l/m 0,00 h 0,00 h 0,0 UV-I 0 W/m 4,4 km/h (1 Bft)
29.03.2013 03:00 -1,1 C -2,1 C 95 % 1008,1 hPa 0,0 l/m 0,00 h 0,00 h 0,0 UV-I 0 W/m 2,5 km/h (1 Bft)
29.03.2013 04:00 -1,2 C -2,1 C 95 % 1008,3 hPa 0,0 l/m 0,00 h 0,00 h 0,0 UV-I 0 W/m 2,1 km/h (1 Bft)
29.03.2013 05:00 -1,3 C -2,5 C 96 % 1008,3 hPa 0,0 l/m 0,00 h 0,00 h 0,0 UV-I 0 W/m 1,6 km/h (1 Bft)
29.03.2013 06:00 -1,7 C -2,7 C 95 % 1008,6 hPa 0,0 l/m 0,00 h 0,00 h 0,0 UV-I 7 W/m 5,6 km/h (1 Bft)
29.03.2013 07:00 -1,6 C -2,2 C 94 % 1008,8 hPa 0,0 l/m 0,00 h 0,00 h 0,0 UV-I 15 W/m 2,0 km/h (1 Bft)
29.03.2013 08:00 -1,5 C -2,0 C 92 % 1008,9 hPa 0,0 l/m 0,00 h 0,00 h 0,0 UV-I 38 W/m 5,1 km/h (1 Bft)
29.03.2013 09:00 -0,9 C -0,5 C 89 % 1009,0 hPa 0,2 l/m 0,30 h 0,00 h 0,0 UV-I 186 W/m 1,8 km/h (1 Bft)
29.03.2013 10:00 0,5 C 1,1 C 83 % 1008,9 hPa 0,0 l/m 0,27 h 0,00 h 0,6 UV-I 279 W/m 5,0 km/h (1 Bft)
29.03.2013 11:00 1,3 C 1,5 C 79 % 1008,5 hPa 0,0 l/m 0,03 h 0,00 h 0,9 UV-I 179 W/m 2,5 km/h (1 Bft)
29.03.2013 12:00 1,3 C 1,1 C 78 % 1008,4 hPa 0,0 l/m 0,00 h 0,00 h 0,0 UV-I 115 W/m 4,1 km/h (1 Bft)
29.03.2013 13:00 1,7 C 2,4 C 77 % 1008,4 hPa 0,0 l/m 0,33 h 0,00 h 1,0 UV-I 286 W/m 5,1 km/h (1 Bft)
29.03.2013 14:00 2,6 C 3,0 C 72 % 1008,2 hPa 0,0 l/m 0,13 h 0,00 h 0,6 UV-I 242 W/m 10,6 km/h (2 Bft)
29.03.2013 15:00 2,4 C 2,7 C 74 % 1008,0 hPa 0,0 l/m 0,00 h 0,00 h 0,0 UV-I 179 W/m 8,4 km/h (2 Bft)
29.03.2013 16:00 2,1 C 1,9 C 78 % 1008,0 hPa 0,0 l/m 0,20 h 0,00 h 0,0 UV-I 180 W/m 7,5 km/h (2 Bft)
29.03.2013 17:00 1,4 C 0,5 C 83 % 1007,8 hPa 0,0 l/m 0,00 h 0,00 h 0,0 UV-I 49 W/m 7,5 km/h (2 Bft)
29.03.2013 18:00 0,5 C -0,5 C 89 % 1007,9 hPa 0,0 l/m 0,00 h 0,00 h 0,0 UV-I 12 W/m 2,0 km/h (1 Bft)
29.03.2013 19:00 0,0 C -2,0 C 90 % 1007,9 hPa 0,0 l/m 0,00 h 0,00 h 0,0 UV-I 0 W/m 0,0 km/h (0 Bft)
29.03.2013 20:00 -0,8 C -3,1 C 90 % 1008,0 hPa 0,0 l/m 0,00 h 0,00 h 0,0 UV-I 0 W/m 0,0 km/h (0 Bft)
29.03.2013 21:00 -1,2 C -2,4 C 91 % 1007,9 hPa 0,0 l/m 0,00 h 0,00 h 0,0 UV-I 0 W/m 0,0 km/h (0 Bft)
29.03.2013 22:00 -0,9 C -1,7 C 94 % 1007,8 hPa 0,0 l/m 0,00 h 0,00 h 0,0 UV-I 0 W/m 0,0 km/h (0 Bft)
29.03.2013 23:00 -0,4 C -1,6 C 95 % 1007,7 hPa 0,0 l/m 0,00 h 0,00 h 0,0 UV-I 0 W/m 0,4 km/h (0 Bft)
30.03.2013 00:00 -0,3 C -1,0 C 95 % 1007,6 hPa 0,0 l/m 0,00 h 0,00 h 0,0 UV-I 0 W/m 0,1 km/h (0 Bft)
30.03.2013 01:00 -0,3 C -1,2 C 95 % 1007,3 hPa 0,0 l/m 0,00 h 0,00 h 0,0 UV-I 0 W/m 0,1 km/h (0 Bft)
30.03.2013 02:00 -0,6 C -1,6 C 94 % 1006,8 hPa 0,0 l/m 0,00 h 0,00 h 0,0 UV-I 0 W/m 0,8 km/h (0 Bft)
30.03.2013 03:00 -1,0 C -2,1 C 94 % 1006,8 hPa 0,0 l/m 0,00 h 0,00 h 0,0 UV-I 0 W/m 0,2 km/h (0 Bft)
30.03.2013 04:00 -1,2 C -2,1 C 93 % 1006,9 hPa 0,0 l/m 0,00 h 0,00 h 0,0 UV-I 0 W/m 1,4 km/h (1 Bft)
30.03.2013 05:00 -1,3 C -2,3 C 93 % 1007,0 hPa 0,0 l/m 0,00 h 0,00 h 0,0 UV-I 0 W/m 3,8 km/h (1 Bft)
30.03.2013 06:00 -1,7 C -2,7 C 93 % 1007,2 hPa 0,0 l/m 0,00 h 0,00 h 0,0 UV-I 16 W/m 6,5 km/h (2 Bft)
30.03.2013 07:00 -1,9 C -2,6 C 94 % 1007,4 hPa 0,0 l/m 0,00 h 0,00 h 0,0 UV-I 53 W/m 3,4 km/h (1 Bft)
30.03.2013 08:00 -1,0 C -0,9 C 94 % 1007,5 hPa 0,0 l/m 0,00 h 0,00 h 0,0 UV-I 158 W/m 2,7 km/h (1 Bft)
30.03.2013 09:00 1,0 C 1,6 C 88 % 1007,5 hPa 0,0 l/m 0,83 h 0,00 h 0,5 UV-I 331 W/m 7,6 km/h (2 Bft)
30.03.2013 10:00 3,1 C 3,4 C 72 % 1007,3 hPa 0,0 l/m 0,77 h 0,00 h 0,7 UV-I 424 W/m 11,9 km/h (2 Bft)
30.03.2013 11:00 4,1 C 4,6 C 65 % 1007,2 hPa 0,0 l/m 0,47 h 0,00 h 0,8 UV-I 380 W/m 12,5 km/h (3 Bft)
30.03.2013 12:00 3,7 C 3,9 C 65 % 1007,2 hPa 0,0 l/m 0,03 h 0,00 h 0,5 UV-I 197 W/m 11,6 km/h (2 Bft)
30.03.2013 13:00 3,8 C 4,3 C 69 % 1007,6 hPa 0,0 l/m 0,30 h 0,00 h 0,6 UV-I 292 W/m 11,1 km/h (2 Bft)
30.03.2013 14:00 4,3 C 4,3 C 68 % 1007,7 hPa 0,0 l/m 0,23 h 0,00 h 0,7 UV-I 231 W/m 7,5 km/h (2 Bft)
30.03.2013 15:00 4,4 C 5,6 C 69 % 1007,7 hPa 0,0 l/m 0,63 h 0,00 h 0,5 UV-I 326 W/m 11,2 km/h (2 Bft)
30.03.2013 16:00 4,1 C 3,2 C 72 % 1007,9 hPa 0,0 l/m 0,03 h 0,00 h 0,0 UV-I 92 W/m 4,5 km/h (1 Bft)
30.03.2013 17:00 3,1 C 2,5 C 77 % 1008,0 hPa 0,0 l/m 0,23 h 0,00 h 0,0 UV-I 77 W/m 6,7 km/h (2 Bft)
30.03.2013 18:00 2,7 C 1,6 C 74 % 1008,2 hPa 0,0 l/m 0,00 h 0,00 h 0,0 UV-I 34 W/m 10,3 km/h (2 Bft)
30.03.2013 19:00 2,1 C 0,9 C 79 % 1008,9 hPa 0,0 l/m 0,00 h 0,00 h 0,0 UV-I 5 W/m 5,0 km/h (1 Bft)
30.03.2013 20:00 1,4 C 0,1 C 85 % 1009,6 hPa 0,0 l/m 0,00 h 0,00 h 0,0 UV-I 0 W/m 1,1 km/h (0 Bft)
30.03.2013 21:00 1,0 C -0,1 C 88 % 1010,0 hPa 0,0 l/m 0,00 h 0,00 h 0,0 UV-I 0 W/m 4,2 km/h (1 Bft)
30.03.2013 22:00 0,3 C -1,1 C 89 % 1010,2 hPa 0,0 l/m 0,00 h 0,00 h 0,0 UV-I 0 W/m 4,7 km/h (1 Bft)
30.03.2013 23:00 -0,4 C -2,1 C 91 % 1010,3 hPa 0,0 l/m 0,00 h 0,00 h 0,0 UV-I 0 W/m 0,2 km/h (0 Bft)
31.03.2013 00:00 -1,0 C -2,8 C 92 % 1010,3 hPa 0,0 l/m 0,00 h 0,00 h 0,0 UV-I 0 W/m 0,3 km/h (0 Bft)
31.03.2013 01:00 -1,5 C -2,9 C 93 % 1010,6 hPa 0,0 l/m 0,00 h 0,00 h 0,0 UV-I 0 W/m 0,2 km/h (0 Bft)
31.03.2013 03:00 -1,3 C -1,9 C 95 % 1010,9 hPa 0,0 l/m 0,00 h 0,00 h 0,0 UV-I 0 W/m 0,3 km/h (0 Bft)
31.03.2013 04:00 -0,7 C -1,6 C 96 % 1010,9 hPa 0,0 l/m 0,00 h 0,00 h 0,0 UV-I 0 W/m 5,0 km/h (1 Bft)
31.03.2013 05:00 -0,5 C -1,6 C 96 % 1010,9 hPa 0,0 l/m 0,00 h 0,00 h 0,0 UV-I 0 W/m 8,0 km/h (2 Bft)
31.03.2013 06:00 -0,6 C -1,6 C 96 % 1011,2 hPa 0,0 l/m 0,00 h 0,00 h 0,0 UV-I 0 W/m 6,5 km/h (2 Bft)
31.03.2013 07:00 -0,8 C -1,7 C 97 % 1011,6 hPa 0,0 l/m 0,00 h 0,00 h 0,0 UV-I 7 W/m 10,2 km/h (2 Bft)
31.03.2013 08:00 -0,9 C -1,6 C 97 % 1011,9 hPa 0,0 l/m 0,00 h 0,00 h 0,0 UV-I 36 W/m 11,2 km/h (2 Bft)
31.03.2013 09:00 -0,7 C -1,0 C 96 % 1012,4 hPa 0,2 l/m 0,00 h 0,00 h 0,0 UV-I 75 W/m 9,5 km/h (2 Bft)
31.03.2013 10:00 -0,2 C 0,1 C 96 % 1012,6 hPa 0,0 l/m 0,00 h 0,00 h 0,0 UV-I 158 W/m 11,1 km/h (2 Bft)
31.03.2013 11:00 1,0 C 1,8 C 92 % 1012,7 hPa 0,0 l/m 0,03 h 0,00 h 0,0 UV-I 199 W/m 8,2 km/h (2 Bft)
31.03.2013 12:00 1,9 C 2,3 C 85 % 1012,9 hPa 0,0 l/m 0,00 h 0,00 h 0,8 UV-I 202 W/m 11,4 km/h (2 Bft)
31.03.2013 13:00 3,2 C 4,0 C 79 % 1012,8 hPa 0,0 l/m 0,67 h 0,00 h 0,9 UV-I 439 W/m 10,7 km/h (2 Bft)
31.03.2013 14:00 3,6 C 3,6 C 74 % 1012,6 hPa 0,0 l/m 0,00 h 0,00 h 0,0 UV-I 170 W/m 11,2 km/h (2 Bft)
31.03.2013 15:00 2,2 C 1,7 C 86 % 1012,7 hPa 0,0 l/m 0,00 h 0,00 h 0,0 UV-I 79 W/m 7,5 km/h (2 Bft)
31.03.2013 16:00 2,2 C 2,6 C 85 % 1012,5 hPa 0,0 l/m 0,00 h 0,00 h 0,0 UV-I 195 W/m 9,4 km/h (2 Bft)
31.03.2013 17:00 2,3 C 2,2 C 82 % 1012,3 hPa 0,0 l/m 0,00 h 0,00 h 0,0 UV-I 114 W/m 7,0 km/h (2 Bft)
31.03.2013 18:00 2,7 C 2,3 C 77 % 1012,3 hPa 0,0 l/m 0,00 h 0,00 h 0,0 UV-I 69 W/m 3,6 km/h (1 Bft)
31.03.2013 19:00 2,4 C 1,3 C 78 % 1012,6 hPa 0,0 l/m 0,00 h 0,00 h 0,0 UV-I 17 W/m 1,9 km/h (1 Bft)
31.03.2013 20:00 1,4 C -0,0 C 82 % 1012,7 hPa 0,0 l/m 0,00 h 0,00 h 0,0 UV-I 0 W/m 2,9 km/h (1 Bft)
31.03.2013 21:00 0,6 C -0,6 C 85 % 1012,7 hPa 0,0 l/m 0,00 h 0,00 h 0,0 UV-I 0 W/m 0,2 km/h (0 Bft)
31.03.2013 22:00 0,5 C -1,6 C 86 % 1012,8 hPa 0,0 l/m 0,00 h 0,00 h 0,0 UV-I 0 W/m 0,0 km/h (0 Bft)
31.03.2013 23:00 -0,7 C -3,5 C 85 % 1012,6 hPa 0,0 l/m 0,00 h 0,00 h 0,0 UV-I 0 W/m 0,0 km/h (0 Bft)
Min-Datum _ 27.03.13 27.03.13 27.03.13 30.03.13 - - - - - 25.03.13
_ Min-Zeit 06:34 06:06 16:14 02:24 - - - - - 00:40
Minimum _ -3,9 C -5,4 C 43 % 1006,7 hPa - - - - - 0,0 km/h (0 Bft)
Max-Datum _ 27.03.13 27.03.13 31.03.13 25.03.13 29.03.13 25.03.13 25.03.13 25.03.13 25.03.13 25.03.13
_ Max-Zeit 15:54 15:46 06:50 08:02 09:50 08:40 00:00 12:26 11:50 14:10
Maximum _ 7,3 C 11,2 C 97 % 1014,9 hPa 0,2 l/m 0,03 h 0,00 h 1,8 UV-I 686 W/m 43,8 km/h
O (6 Bft)
Durchschnitt _ 0,8 C 0,0 C 73 % 1010,5 hPa #0,4 l/m #36:54 h #0 min. 0,9 UV-I 242 W/m 7,4 km/h (2 Bft)
© 2013 W. Hausmann